Time;durP1;ratioP1;P1;durP2;ratioP2;P2;SDS_P1;SDS_P2;PMS_P1;PMS_P2;Temp;Humidity;BMP_temperature;BMP_pressure;BME280_temperature;BME280_humidity;BME280_pressure;Samples;Min_cycle;Max_cycle;Signal;HPM_P1;HPM_P2
2023/09/10 00:00:28;;;;;;;0.20;0.13;;;;;;;;;;4992066;28;20059;-83
2023/09/10 00:02:54;;;;;;;0.20;0.10;;;;;;;;;;4987241;28;20396;-83
2023/09/10 00:05:20;;;;;;;0.20;0.10;;;;;;;;;;4994536;28;20558;-83
2023/09/10 00:07:46;;;;;;;0.77;0.30;;;;;;;;;;5007145;28;20038;-83
2023/09/10 00:10:12;;;;;;;0.30;0.20;;;;;;;;;;5005106;28;20099;-83
2023/09/10 00:12:38;;;;;;;0.30;0.30;;;;;;;;;;4986140;28;20042;-83
2023/09/10 00:15:05;;;;;;;0.20;0.20;;;;;;;;;;5002214;28;20042;-83
2023/09/10 00:17:31;;;;;;;0.30;0.20;;;;;;;;;;4986758;28;20073;-84
2023/09/10 00:19:57;;;;;;;0.20;0.10;;;;;;;;;;4988436;28;20041;-84
2023/09/10 00:22:23;;;;;;;0.40;0.20;;;;;;;;;;4983219;28;20120;-84
2023/09/10 00:24:49;;;;;;;0.35;0.30;;;;;;;;;;5006204;28;20046;-84
2023/09/10 00:27:15;;;;;;;0.20;0.20;;;;;;;;;;4989459;28;20045;-83
2023/09/10 00:29:41;;;;;;;0.20;0.10;;;;;;;;;;4988087;28;20474;-83
2023/09/10 00:32:07;;;;;;;0.20;0.10;;;;;;;;;;4992718;28;20050;-83
2023/09/10 00:34:33;;;;;;;0.20;0.10;;;;;;;;;;4988070;28;20671;-83
2023/09/10 00:37:00;;;;;;;0.57;0.38;;;;;;;;;;4989555;28;20487;-84
2023/09/10 00:39:26;;;;;;;1.15;0.52;;;;;;;;;;4994984;28;20069;-83
2023/09/10 00:41:55;;;;;;;0.45;0.25;;;;;;;;;;4988222;28;20065;-83
2023/09/10 00:44:23;;;;;;;3.17;0.20;;;;;;;;;;4990531;28;20567;-83
2023/09/10 00:46:49;;;;;;;0.30;0.25;;;;;;;;;;5005922;28;20486;-84
2023/09/10 00:49:16;;;;;;;0.20;0.10;;;;;;;;;;4987040;28;20069;-83
2023/09/10 00:51:42;;;;;;;0.45;0.30;;;;;;;;;;5007155;28;20510;-83
2023/09/10 00:54:08;;;;;;;0.30;0.15;;;;;;;;;;5007873;28;20497;-84
2023/09/10 00:56:34;;;;;;;0.22;0.22;;;;;;;;;;4987193;28;20034;-84
2023/09/10 00:59:00;;;;;;;0.20;0.20;;;;;;;;;;5011851;28;20415;-84
2023/09/10 01:01:26;;;;;;;0.30;0.30;;;;;;;;;;4979061;28;20054;-83
2023/09/10 01:03:52;;;;;;;0.30;0.22;;;;;;;;;;5004692;28;20065;-84
2023/09/10 01:06:19;;;;;;;0.63;0.45;;;;;;;;;;5002053;28;20117;-83
2023/09/10 01:08:47;;;;;;;1.27;0.95;;;;;;;;;;5001444;28;20432;-84
2023/09/10 01:11:34;;;;;;;0.30;0.30;;;;;;;;;;4986021;28;20068;-83
2023/09/10 01:14:00;;;;;;;0.38;0.38;;;;;;;;;;4984230;28;20032;-84
2023/09/10 01:16:33;;;;;;;0.20;0.10;;;;;;;;;;5003628;28;20038;-84
2023/09/10 01:19:04;;;;;;;0.57;0.43;;;;;;;;;;4989213;28;20405;-84
2023/09/10 01:21:36;;;;;;;0.20;0.20;;;;;;;;;;5003030;28;20129;-84
2023/09/10 01:24:23;;;;;;;0.40;0.40;;;;;;;;;;4990302;28;20068;-83
2023/09/10 01:26:59;;;;;;;0.40;0.40;;;;;;;;;;4988256;28;20046;-83
2023/09/10 01:29:25;;;;;;;0.30;0.30;;;;;;;;;;4995959;28;20050;-84
2023/09/10 01:31:58;;;;;;;0.60;0.55;;;;;;;;;;5005653;28;20034;-83
2023/09/10 01:34:26;;;;;;;0.40;0.38;;;;;;;;;;4999785;28;20128;-84
2023/09/10 01:36:56;;;;;;;0.20;0.17;;;;;;;;;;4993140;28;20029;-83
2023/09/10 01:39:30;;;;;;;0.45;0.45;;;;;;;;;;4980220;28;20034;-84
2023/09/10 01:41:57;;;;;;;0.25;0.20;;;;;;;;;;5000574;28;20057;-84
2023/09/10 01:44:25;;;;;;;0.20;0.10;;;;;;;;;;4982133;28;20046;-83
2023/09/10 01:46:51;;;;;;;0.30;0.28;;;;;;;;;;4985292;28;20046;-83
2023/09/10 01:49:18;;;;;;;0.20;0.20;;;;;;;;;;4994138;28;20048;-83
2023/09/10 01:51:44;;;;;;;0.30;0.30;;;;;;;;;;4974992;28;20526;-83
2023/09/10 01:54:10;;;;;;;0.68;0.55;;;;;;;;;;4969961;28;20042;-83
2023/09/10 01:56:36;;;;;;;0.73;0.28;;;;;;;;;;4999355;28;20045;-84
2023/09/10 01:59:02;;;;;;;0.43;0.28;;;;;;;;;;5000592;28;20034;-83
2023/09/10 02:01:28;;;;;;;0.65;0.45;;;;;;;;;;4992071;28;20081;-83
2023/09/10 02:03:54;;;;;;;0.20;0.20;;;;;;;;;;4988442;28;20045;-83
2023/09/10 02:06:20;;;;;;;0.20;0.20;;;;;;;;;;4988942;28;20037;-83
2023/09/10 02:08:46;;;;;;;0.30;0.15;;;;;;;;;;4985609;28;20061;-83
2023/09/10 02:11:12;;;;;;;1.05;0.30;;;;;;;;;;5001554;28;20041;-83
2023/09/10 02:13:38;;;;;;;0.20;0.20;;;;;;;;;;4982472;28;20041;-84
2023/09/10 02:16:04;;;;;;;0.20;0.20;;;;;;;;;;4986081;28;20101;-84
2023/09/10 02:18:30;;;;;;;0.20;0.10;;;;;;;;;;4997678;28;20092;-83
2023/09/10 02:20:57;;;;;;;0.20;0.13;;;;;;;;;;5004339;28;20117;-84
2023/09/10 02:23:23;;;;;;;0.20;0.10;;;;;;;;;;4986904;28;20049;-83
2023/09/10 02:25:49;;;;;;;0.20;0.20;;;;;;;;;;4994679;28;20046;-84
2023/09/10 02:28:15;;;;;;;0.20;0.10;;;;;;;;;;5002850;28;20099;-84
2023/09/10 02:30:41;;;;;;;0.30;0.20;;;;;;;;;;5002921;28;20046;-83
2023/09/10 02:33:09;;;;;;;0.50;0.50;;;;;;;;;;4993395;28;20030;-84
2023/09/10 02:35:35;;;;;;;0.20;0.10;;;;;;;;;;5004529;28;20572;-83
2023/09/10 02:38:02;;;;;;;0.20;0.20;;;;;;;;;;5003784;28;20096;-83
2023/09/10 02:40:28;;;;;;;0.30;0.30;;;;;;;;;;4994082;28;20041;-83
2023/09/10 02:42:54;;;;;;;0.20;0.10;;;;;;;;;;5004473;28;20317;-84
2023/09/10 02:45:20;;;;;;;0.40;0.17;;;;;;;;;;5009478;28;20045;-83
2023/09/10 02:47:47;;;;;;;0.20;0.10;;;;;;;;;;4984747;28;20041;-83
2023/09/10 02:50:13;;;;;;;0.50;0.38;;;;;;;;;;4998602;28;22361;-83
2023/09/10 02:52:40;;;;;;;0.40;0.40;;;;;;;;;;4987185;28;20488;-83
2023/09/10 02:57:41;;;;;;;0.25;0.20;;;;;;;;;;5834699;23;20112;-84
2023/09/10 03:00:08;;;;;;;0.50;0.38;;;;;;;;;;4944482;23;20065;-77
2023/09/10 03:02:34;;;;;;;0.20;0.20;;;;;;;;;;4982830;28;20064;-75
2023/09/10 03:05:00;;;;;;;0.20;0.20;;;;;;;;;;4986234;28;20513;-76
2023/09/10 03:07:26;;;;;;;0.20;0.15;;;;;;;;;;4985473;28;20081;-75
2023/09/10 03:09:52;;;;;;;0.20;0.10;;;;;;;;;;4979844;28;20828;-78
2023/09/10 03:12:21;;;;;;;0.52;0.20;;;;;;;;;;4970219;28;20034;-77
2023/09/10 03:14:47;;;;;;;0.30;0.28;;;;;;;;;;4973297;28;20037;-76
2023/09/10 03:17:13;;;;;;;0.30;0.25;;;;;;;;;;4976155;28;20038;-77
2023/09/10 03:19:40;;;;;;;0.20;0.20;;;;;;;;;;4973260;28;20042;-77
2023/09/10 03:22:06;;;;;;;0.20;0.20;;;;;;;;;;4989925;28;20049;-78
2023/09/10 03:24:36;;;;;;;0.20;0.10;;;;;;;;;;4986741;28;20046;-78
2023/09/10 03:27:02;;;;;;;0.30;0.20;;;;;;;;;;4968033;28;20037;-78
2023/09/10 03:29:28;;;;;;;0.20;0.10;;;;;;;;;;4986465;28;20052;-76
2023/09/10 03:31:54;;;;;;;0.20;0.13;;;;;;;;;;4990983;28;20515;-77
2023/09/10 03:34:20;;;;;;;0.20;0.10;;;;;;;;;;4989012;28;20048;-78
2023/09/10 03:36:46;;;;;;;0.20;0.10;;;;;;;;;;4980471;28;20044;-78
2023/09/10 03:39:12;;;;;;;0.22;0.13;;;;;;;;;;4968115;28;20421;-76
2023/09/10 03:41:38;;;;;;;0.30;0.20;;;;;;;;;;4972427;28;20042;-77
2023/09/10 03:44:04;;;;;;;0.60;0.40;;;;;;;;;;4969658;28;20041;-77
2023/09/10 03:46:30;;;;;;;0.20;0.10;;;;;;;;;;4981301;28;20094;-77
2023/09/10 03:48:56;;;;;;;0.20;0.10;;;;;;;;;;4969751;28;20041;-76
2023/09/10 03:51:23;;;;;;;0.20;0.20;;;;;;;;;;4984526;28;20126;-77
2023/09/10 03:53:49;;;;;;;0.20;0.10;;;;;;;;;;4984651;28;20039;-77
2023/09/10 03:56:15;;;;;;;0.50;0.30;;;;;;;;;;4976532;28;20506;-77
2023/09/10 03:58:41;;;;;;;1.05;0.20;;;;;;;;;;4990916;28;20038;-76
2023/09/10 04:01:07;;;;;;;0.38;0.20;;;;;;;;;;4975136;28;20042;-76
2023/09/10 04:03:33;;;;;;;0.45;0.32;;;;;;;;;;4991427;28;20042;-76
2023/09/10 04:05:59;;;;;;;0.30;0.25;;;;;;;;;;4990856;28;20042;-76
2023/09/10 04:08:25;;;;;;;0.28;0.10;;;;;;;;;;4985475;28;20409;-75
2023/09/10 04:10:51;;;;;;;0.20;0.10;;;;;;;;;;4966766;28;20402;-77
2023/09/10 04:13:17;;;;;;;0.50;0.22;;;;;;;;;;4966331;28;20520;-77
2023/09/10 04:15:43;;;;;;;0.20;0.20;;;;;;;;;;4984052;28;20033;-76
2023/09/10 04:18:09;;;;;;;0.20;0.10;;;;;;;;;;4979804;28;20044;-76
2023/09/10 04:20:35;;;;;;;0.40;0.20;;;;;;;;;;4980640;28;20121;-77
2023/09/10 04:23:01;;;;;;;0.20;0.10;;;;;;;;;;4979926;28;20041;-77
2023/09/10 04:25:27;;;;;;;0.20;0.10;;;;;;;;;;4997952;28;20128;-78
2023/09/10 04:27:53;;;;;;;0.30;0.20;;;;;;;;;;4966220;28;20081;-77
2023/09/10 04:30:19;;;;;;;0.20;0.10;;;;;;;;;;4997543;28;20069;-78
2023/09/10 04:32:45;;;;;;;0.30;0.20;;;;;;;;;;4983455;28;20030;-78
2023/09/10 04:35:12;;;;;;;0.20;0.17;;;;;;;;;;4982397;28;20034;-78
2023/09/10 04:37:38;;;;;;;0.20;0.10;;;;;;;;;;4969885;28;20758;-77
2023/09/10 04:40:06;;;;;;;0.20;0.10;;;;;;;;;;4966334;28;20042;-77
2023/09/10 04:42:32;;;;;;;0.20;0.10;;;;;;;;;;4984906;28;20033;-78
2023/09/10 04:44:58;;;;;;;0.20;0.10;;;;;;;;;;4966542;28;20100;-76
2023/09/10 04:47:24;;;;;;;0.20;0.10;;;;;;;;;;4966224;28;20137;-77
2023/09/10 04:49:50;;;;;;;0.25;0.15;;;;;;;;;;4984903;28;20069;-78
2023/09/10 04:52:17;;;;;;;0.22;0.10;;;;;;;;;;4995867;28;20037;-78
2023/09/10 04:54:43;;;;;;;0.43;0.30;;;;;;;;;;4975194;28;20068;-78
2023/09/10 04:57:12;;;;;;;0.50;0.35;;;;;;;;;;4969481;28;20104;-77
2023/09/10 04:59:38;;;;;;;0.32;0.32;;;;;;;;;;4985161;28;20068;-78
2023/09/10 05:02:07;;;;;;;0.40;0.20;;;;;;;;;;4983910;28;20049;-78
2023/09/10 05:04:33;;;;;;;0.20;0.20;;;;;;;;;;4974270;28;20046;-79
2023/09/10 05:06:59;;;;;;;0.40;0.30;;;;;;;;;;4989812;28;20052;-78
2023/09/10 05:09:25;;;;;;;0.32;0.20;;;;;;;;;;4972220;28;20048;-77
2023/09/10 05:11:51;;;;;;;0.20;0.20;;;;;;;;;;4968436;28;21909;-77
2023/09/10 05:14:17;;;;;;;0.60;0.50;;;;;;;;;;4980563;28;20145;-78
2023/09/10 05:16:43;;;;;;;0.20;0.20;;;;;;;;;;4981482;28;20125;-79
2023/09/10 05:19:09;;;;;;;0.38;0.30;;;;;;;;;;4982658;28;20050;-78
2023/09/10 05:21:35;;;;;;;0.55;0.30;;;;;;;;;;4965857;28;20389;-76
2023/09/10 05:24:01;;;;;;;0.40;0.30;;;;;;;;;;4970962;28;20081;-78
2023/09/10 05:26:27;;;;;;;0.30;0.28;;;;;;;;;;4971284;28;20060;-78
2023/09/10 05:28:53;;;;;;;0.30;0.20;;;;;;;;;;4978782;28;20045;-77
2023/09/10 05:31:19;;;;;;;0.20;0.13;;;;;;;;;;4980939;28;20619;-77
2023/09/10 05:33:46;;;;;;;0.40;0.40;;;;;;;;;;4983003;28;20042;-78
2023/09/10 05:36:12;;;;;;;0.40;0.20;;;;;;;;;;4981257;28;20088;-77
2023/09/10 05:38:38;;;;;;;0.20;0.10;;;;;;;;;;4969591;28;20920;-78
2023/09/10 05:41:04;;;;;;;0.20;0.20;;;;;;;;;;4981092;28;20053;-77
2023/09/10 05:43:31;;;;;;;0.25;0.20;;;;;;;;;;4981759;28;20046;-78
2023/09/10 05:45:57;;;;;;;0.40;0.40;;;;;;;;;;4982596;28;20041;-78
2023/09/10 05:48:23;;;;;;;0.22;0.13;;;;;;;;;;4981739;28;20277;-78
2023/09/10 05:50:50;;;;;;;0.82;0.73;;;;;;;;;;4976704;28;20153;-77
2023/09/10 05:53:16;;;;;;;0.20;0.10;;;;;;;;;;4977730;28;20472;-78
2023/09/10 05:55:42;;;;;;;0.20;0.10;;;;;;;;;;4977997;28;20042;-78
2023/09/10 05:58:08;;;;;;;0.30;0.28;;;;;;;;;;4978610;28;20034;-78
2023/09/10 06:00:34;;;;;;;0.25;0.17;;;;;;;;;;4970007;28;20054;-77
2023/09/10 06:03:00;;;;;;;0.30;0.20;;;;;;;;;;4968895;28;20665;-77
2023/09/10 06:05:27;;;;;;;0.20;0.10;;;;;;;;;;4980047;28;20820;-78
2023/09/10 06:07:53;;;;;;;0.30;0.30;;;;;;;;;;4984406;28;20052;-78
2023/09/10 06:10:19;;;;;;;0.20;0.10;;;;;;;;;;4965958;28;20041;-78
2023/09/10 06:12:45;;;;;;;0.25;0.20;;;;;;;;;;4982613;28;20049;-78
2023/09/10 06:15:11;;;;;;;0.32;0.32;;;;;;;;;;4963450;28;20060;-76
2023/09/10 06:17:37;;;;;;;0.40;0.22;;;;;;;;;;4964428;28;20037;-78
2023/09/10 06:20:04;;;;;;;0.50;0.50;;;;;;;;;;4965017;28;20038;-77
2023/09/10 06:22:30;;;;;;;0.30;0.20;;;;;;;;;;4980143;28;20156;-78
2023/09/10 06:24:56;;;;;;;0.28;0.20;;;;;;;;;;4964583;28;20525;-77
2023/09/10 06:27:22;;;;;;;0.20;0.10;;;;;;;;;;4967684;28;20421;-78
2023/09/10 06:29:48;;;;;;;3.03;0.40;;;;;;;;;;4981920;28;20046;-77
2023/09/10 06:32:14;;;;;;;0.30;0.30;;;;;;;;;;4972348;28;20038;-78
2023/09/10 06:34:40;;;;;;;1.20;0.47;;;;;;;;;;4962478;28;20129;-78
2023/09/10 06:37:06;;;;;;;0.30;0.30;;;;;;;;;;4983183;28;20065;-78
2023/09/10 06:39:38;;;;;;;0.50;0.50;;;;;;;;;;4965638;28;20037;-77
2023/09/10 06:42:13;;;;;;;0.68;0.40;;;;;;;;;;4996340;28;20429;-79
2023/09/10 06:44:43;;;;;;;0.25;0.20;;;;;;;;;;4968747;28;20126;-78
2023/09/10 06:47:09;;;;;;;1.05;0.40;;;;;;;;;;4970435;28;20101;-77
2023/09/10 06:49:36;;;;;;;0.20;0.17;;;;;;;;;;4974474;28;20048;-78
2023/09/10 06:52:02;;;;;;;0.57;0.30;;;;;;;;;;4962653;28;20042;-78
2023/09/10 06:54:28;;;;;;;0.30;0.30;;;;;;;;;;4982360;28;20049;-78
2023/09/10 06:56:55;;;;;;;0.22;0.20;;;;;;;;;;4971419;28;20042;-78
2023/09/10 06:59:21;;;;;;;0.30;0.20;;;;;;;;;;4985180;28;20081;-78
2023/09/10 07:01:47;;;;;;;0.30;0.15;;;;;;;;;;4967344;28;20042;-78
2023/09/10 07:04:17;;;;;;;0.45;0.17;;;;;;;;;;4971369;28;20168;-78
2023/09/10 07:06:44;;;;;;;0.20;0.10;;;;;;;;;;4967048;28;20101;-78
2023/09/10 07:09:11;;;;;;;1.88;0.55;;;;;;;;;;4984705;28;20042;-78
2023/09/10 07:11:37;;;;;;;0.43;0.30;;;;;;;;;;4981115;28;20064;-78
2023/09/10 07:14:03;;;;;;;0.20;0.10;;;;;;;;;;4959162;28;20041;-78
2023/09/10 07:16:29;;;;;;;0.40;0.40;;;;;;;;;;4978258;28;21842;-78
2023/09/10 07:18:55;;;;;;;0.30;0.30;;;;;;;;;;4989699;28;20160;-78
2023/09/10 07:21:21;;;;;;;0.75;0.40;;;;;;;;;;4970409;28;20049;-78
2023/09/10 07:23:47;;;;;;;0.40;0.30;;;;;;;;;;4972003;28;20057;-77
2023/09/10 07:26:13;;;;;;;0.25;0.20;;;;;;;;;;4978357;28;20041;-78
2023/09/10 07:28:39;;;;;;;0.20;0.10;;;;;;;;;;4964984;28;20076;-78
2023/09/10 07:31:07;;;;;;;0.45;0.35;;;;;;;;;;4982279;28;20040;-78
2023/09/10 07:33:33;;;;;;;0.20;0.10;;;;;;;;;;4989487;28;20801;-79
2023/09/10 07:35:59;;;;;;;0.30;0.25;;;;;;;;;;4972796;28;20046;-77
2023/09/10 07:38:25;;;;;;;1.95;0.47;;;;;;;;;;4974321;28;20122;-77
2023/09/10 07:40:51;;;;;;;0.20;0.15;;;;;;;;;;4990063;28;20050;-77
2023/09/10 07:43:17;;;;;;;0.35;0.32;;;;;;;;;;4987743;28;20046;-77
2023/09/10 07:45:48;;;;;;;0.40;0.22;;;;;;;;;;4968609;28;20042;-79
2023/09/10 07:48:14;;;;;;;0.47;0.47;;;;;;;;;;4981836;28;20536;-78
2023/09/10 07:50:41;;;;;;;1.65;0.13;;;;;;;;;;4984736;28;20060;-78
2023/09/10 07:53:07;;;;;;;0.45;0.43;;;;;;;;;;4987677;28;20080;-78
2023/09/10 07:55:35;;;;;;;1.15;0.50;;;;;;;;;;4985628;28;20046;-77
2023/09/10 07:58:02;;;;;;;0.20;0.10;;;;;;;;;;4991389;28;20042;-78
2023/09/10 08:00:29;;;;;;;0.30;0.20;;;;;;;;;;4984764;28;20034;-78
2023/09/10 08:02:57;;;;;;;0.65;0.47;;;;;;;;;;4989653;28;20538;-78
2023/09/10 08:05:23;;;;;;;0.43;0.28;;;;;;;;;;4988650;28;20042;-78
2023/09/10 08:07:49;;;;;;;0.47;0.20;;;;;;;;;;4995040;28;20048;-78
2023/09/10 08:10:15;;;;;;;0.20;0.10;;;;;;;;;;4981132;28;20763;-78
2023/09/10 08:12:41;;;;;;;0.38;0.30;;;;;;;;;;4972671;28;20033;-78
2023/09/10 08:15:07;;;;;;;0.25;0.20;;;;;;;;;;4987784;28;20034;-79
2023/09/10 08:17:35;;;;;;;0.47;0.30;;;;;;;;;;4963901;28;20082;-78
2023/09/10 08:20:01;;;;;;;0.30;0.10;;;;;;;;;;4986883;28;20042;-79
2023/09/10 08:22:27;;;;;;;0.68;0.50;;;;;;;;;;4983725;28;20073;-79
2023/09/10 08:24:55;;;;;;;0.20;0.10;;;;;;;;;;4990417;28;20906;-78
2023/09/10 08:27:21;;;;;;;0.20;0.10;;;;;;;;;;4974343;28;20038;-78
2023/09/10 08:29:47;;;;;;;0.47;0.30;;;;;;;;;;4995735;28;20034;-78
2023/09/10 08:32:13;;;;;;;0.20;0.10;;;;;;;;;;4987874;28;20391;-80
2023/09/10 08:34:39;;;;;;;0.50;0.30;;;;;;;;;;4980835;28;20070;-78
2023/09/10 08:37:09;;;;;;;0.20;0.17;;;;;;;;;;4987345;28;20030;-77
2023/09/10 08:39:35;;;;;;;0.30;0.22;;;;;;;;;;4967983;28;20501;-78
2023/09/10 08:42:16;;;;;;;0.40;0.30;;;;;;;;;;4986006;28;20520;-79
2023/09/10 08:44:46;;;;;;;0.65;0.40;;;;;;;;;;4973311;28;20056;-77
2023/09/10 08:47:14;;;;;;;0.30;0.28;;;;;;;;;;4981642;28;20603;-79
2023/09/10 08:49:43;;;;;;;0.30;0.30;;;;;;;;;;4986400;28;20494;-79
2023/09/10 08:52:09;;;;;;;0.20;0.20;;;;;;;;;;4979570;28;20045;-79
2023/09/10 08:54:35;;;;;;;0.20;0.10;;;;;;;;;;4969557;28;20045;-78
2023/09/10 08:57:02;;;;;;;0.20;0.20;;;;;;;;;;4971279;28;20132;-78
2023/09/10 08:59:29;;;;;;;0.20;0.17;;;;;;;;;;5000332;28;20132;-79
2023/09/10 09:01:57;;;;;;;0.20;0.10;;;;;;;;;;4972115;28;20049;-78
2023/09/10 09:04:23;;;;;;;0.22;0.20;;;;;;;;;;4986169;28;20065;-78
2023/09/10 09:06:54;;;;;;;0.40;0.30;;;;;;;;;;4964035;28;20196;-80
2023/09/10 09:09:20;;;;;;;0.30;0.20;;;;;;;;;;4971567;28;20041;-79
2023/09/10 09:11:47;;;;;;;0.30;0.20;;;;;;;;;;4966139;28;20038;-80
2023/09/10 09:14:13;;;;;;;0.20;0.10;;;;;;;;;;4965064;28;20038;-81
2023/09/10 09:16:43;;;;;;;0.30;0.28;;;;;;;;;;4964406;28;20034;-79
2023/09/10 09:19:12;;;;;;;0.20;0.10;;;;;;;;;;4971531;28;20065;-78
2023/09/10 09:21:40;;;;;;;0.55;0.50;;;;;;;;;;4964867;28;20399;-78
2023/09/10 09:24:08;;;;;;;0.20;0.20;;;;;;;;;;4982463;28;20073;-78
2023/09/10 09:26:36;;;;;;;0.52;0.25;;;;;;;;;;4984565;28;20061;-78
2023/09/10 09:29:02;;;;;;;0.28;0.22;;;;;;;;;;4978651;28;20061;-78
2023/09/10 09:31:28;;;;;;;0.20;0.20;;;;;;;;;;4986038;28;20045;-78
2023/09/10 09:33:54;;;;;;;0.20;0.10;;;;;;;;;;4972399;28;20053;-79
2023/09/10 09:36:25;;;;;;;0.30;0.30;;;;;;;;;;4984436;28;20125;-78
2023/09/10 09:38:51;;;;;;;0.20;0.17;;;;;;;;;;4983771;28;20046;-78
2023/09/10 09:41:17;;;;;;;0.28;0.15;;;;;;;;;;4970463;28;20041;-79
2023/09/10 09:43:44;;;;;;;0.22;0.10;;;;;;;;;;4980265;28;20506;-79
2023/09/10 09:46:10;;;;;;;0.40;0.28;;;;;;;;;;4976180;28;20049;-78
2023/09/10 09:48:37;;;;;;;0.30;0.20;;;;;;;;;;4981998;28;20037;-80
2023/09/10 09:51:04;;;;;;;0.40;0.22;;;;;;;;;;4985022;28;20131;-78
2023/09/10 09:53:31;;;;;;;0.30;0.20;;;;;;;;;;4975711;28;20092;-78
2023/09/10 09:55:59;;;;;;;0.25;0.17;;;;;;;;;;4970885;28;20512;-78
2023/09/10 09:58:25;;;;;;;0.30;0.20;;;;;;;;;;4972135;28;20516;-77
2023/09/10 10:00:51;;;;;;;0.35;0.20;;;;;;;;;;4970681;28;20505;-77
2023/09/10 10:03:18;;;;;;;0.30;0.30;;;;;;;;;;4983815;28;20127;-79
2023/09/10 10:05:47;;;;;;;0.20;0.10;;;;;;;;;;4989831;28;20053;-79
2023/09/10 10:08:15;;;;;;;0.20;0.10;;;;;;;;;;4980944;28;20046;-79
2023/09/10 10:10:48;;;;;;;0.30;0.15;;;;;;;;;;4963347;28;20030;-78
2023/09/10 10:13:18;;;;;;;0.30;0.28;;;;;;;;;;4979670;28;20092;-79
2023/09/10 10:15:46;;;;;;;0.20;0.15;;;;;;;;;;4979756;28;20124;-79
2023/09/10 10:18:12;;;;;;;0.20;0.10;;;;;;;;;;4971602;28;20050;-79
2023/09/10 10:20:40;;;;;;;0.30;0.10;;;;;;;;;;4981839;28;20046;-77
2023/09/10 10:23:07;;;;;;;0.20;0.10;;;;;;;;;;4980691;28;20052;-78
2023/09/10 10:25:33;;;;;;;0.25;0.20;;;;;;;;;;4986436;28;20130;-79
2023/09/10 10:28:00;;;;;;;0.30;0.20;;;;;;;;;;4982624;28;20076;-78
2023/09/10 10:30:26;;;;;;;0.20;0.13;;;;;;;;;;4980544;28;20613;-78
2023/09/10 10:32:53;;;;;;;0.75;0.25;;;;;;;;;;4965668;28;20042;-78
2023/09/10 10:35:20;;;;;;;0.20;0.10;;;;;;;;;;4976799;28;20046;-79
2023/09/10 10:37:49;;;;;;;0.20;0.10;;;;;;;;;;4966083;28;20038;-78
2023/09/10 10:40:19;;;;;;;0.95;0.30;;;;;;;;;;4984990;28;20046;-79
2023/09/10 10:43:11;;;;;;;0.40;0.40;;;;;;;;;;4986590;28;20509;-79
2023/09/10 10:45:38;;;;;;;0.25;0.20;;;;;;;;;;4976691;28;20057;-81
2023/09/10 10:48:07;;;;;;;0.20;0.10;;;;;;;;;;4961939;28;20137;-80
2023/09/10 10:50:35;;;;;;;1.45;0.52;;;;;;;;;;4983215;28;20069;-81
2023/09/10 10:53:21;;;;;;;0.20;0.20;;;;;;;;;;4983604;28;20046;-79
2023/09/10 10:55:52;;;;;;;0.40;0.22;;;;;;;;;;4983453;28;20068;-79
2023/09/10 10:58:20;;;;;;;0.52;0.25;;;;;;;;;;4982657;28;20449;-78
2023/09/10 11:00:50;;;;;;;0.20;0.20;;;;;;;;;;4969571;28;20084;-79
2023/09/10 11:03:17;;;;;;;0.20;0.13;;;;;;;;;;4976013;28;20041;-82
2023/09/10 11:05:52;;;;;;;0.20;0.20;;;;;;;;;;4977557;28;20408;-80
2023/09/10 11:08:48;;;;;;;0.20;0.10;;;;;;;;;;4988681;28;20118;-79
2023/09/10 11:11:33;;;;;;;0.57;0.40;;;;;;;;;;4973367;28;20101;-78
2023/09/10 11:14:05;;;;;;;0.20;0.20;;;;;;;;;;4992560;28;20042;-79
2023/09/10 11:16:35;;;;;;;0.20;0.10;;;;;;;;;;4986832;28;20587;-79
2023/09/10 11:19:02;;;;;;;0.28;0.15;;;;;;;;;;4981772;28;20664;-80
2023/09/10 11:21:57;;;;;;;0.40;0.20;;;;;;;;;;4983103;28;20057;-79
2023/09/10 11:24:23;;;;;;;0.30;0.20;;;;;;;;;;4981518;28;20151;-78
2023/09/10 11:26:49;;;;;;;0.40;0.30;;;;;;;;;;4965848;28;20052;-79
2023/09/10 11:29:19;;;;;;;0.20;0.13;;;;;;;;;;4983903;28;20391;-78
2023/09/10 11:31:52;;;;;;;0.30;0.30;;;;;;;;;;4978549;28;20049;-79
2023/09/10 11:34:18;;;;;;;0.38;0.30;;;;;;;;;;4970191;28;20048;-79
2023/09/10 11:36:48;;;;;;;0.50;0.40;;;;;;;;;;4979840;28;20038;-80
2023/09/10 11:39:15;;;;;;;0.20;0.20;;;;;;;;;;4984097;28;20468;-80
2023/09/10 11:41:51;;;;;;;0.38;0.20;;;;;;;;;;4971241;28;20038;-79
2023/09/10 11:44:17;;;;;;;0.20;0.15;;;;;;;;;;4975829;28;20555;-79
2023/09/10 11:46:44;;;;;;;0.22;0.20;;;;;;;;;;4990605;28;20049;-80
2023/09/10 11:49:10;;;;;;;0.20;0.20;;;;;;;;;;4973363;28;20049;-78
2023/09/10 11:51:43;;;;;;;0.22;0.20;;;;;;;;;;4985861;28;21497;-78
2023/09/10 11:54:09;;;;;;;0.38;0.13;;;;;;;;;;5008034;28;20156;-80
2023/09/10 11:56:35;;;;;;;0.30;0.30;;;;;;;;;;4981327;28;21001;-78
2023/09/10 11:59:02;;;;;;;0.50;0.30;;;;;;;;;;4986161;28;20053;-80
2023/09/10 12:01:28;;;;;;;0.75;0.43;;;;;;;;;;4985519;28;20070;-80
2023/09/10 12:03:54;;;;;;;0.30;0.20;;;;;;;;;;4966514;28;21718;-78
2023/09/10 12:06:20;;;;;;;0.25;0.25;;;;;;;;;;4981615;28;20044;-83
2023/09/10 12:08:46;;;;;;;0.20;0.20;;;;;;;;;;4988886;28;20038;-78
2023/09/10 12:11:16;;;;;;;0.30;0.20;;;;;;;;;;4977661;28;20044;-80
2023/09/10 12:13:42;;;;;;;0.28;0.25;;;;;;;;;;4998605;28;20068;-79
2023/09/10 12:16:08;;;;;;;0.65;0.40;;;;;;;;;;4976269;28;20116;-79
2023/09/10 12:18:34;;;;;;;1.20;0.30;;;;;;;;;;4981158;28;20057;-81
2023/09/10 12:21:00;;;;;;;0.22;0.22;;;;;;;;;;4982245;28;20038;-79
2023/09/10 12:23:27;;;;;;;0.50;0.30;;;;;;;;;;4984804;28;20046;-79
2023/09/10 12:25:54;;;;;;;0.60;0.47;;;;;;;;;;5007811;28;20034;-78
2023/09/10 12:28:20;;;;;;;0.28;0.28;;;;;;;;;;4984296;28;20044;-79
2023/09/10 12:30:46;;;;;;;0.28;0.20;;;;;;;;;;4986334;28;20116;-79
2023/09/10 12:33:13;;;;;;;0.20;0.10;;;;;;;;;;4969091;28;20146;-80
2023/09/10 12:35:39;;;;;;;0.40;0.30;;;;;;;;;;4969283;28;20611;-81
2023/09/10 12:38:05;;;;;;;0.45;0.30;;;;;;;;;;4972348;28;20092;-79
2023/09/10 12:40:31;;;;;;;0.20;0.20;;;;;;;;;;4980364;28;20053;-79
2023/09/10 12:42:57;;;;;;;0.45;0.40;;;;;;;;;;4969825;28;20038;-80
2023/09/10 12:45:25;;;;;;;0.20;0.13;;;;;;;;;;4966961;28;20502;-85
2023/09/10 12:47:52;;;;;;;0.20;0.20;;;;;;;;;;4984925;28;20572;-81
2023/09/10 12:50:18;;;;;;;0.40;0.35;;;;;;;;;;4986768;28;20046;-80
2023/09/10 12:52:44;;;;;;;0.45;0.30;;;;;;;;;;4973602;28;20065;-79
2023/09/10 12:55:16;;;;;;;0.20;0.20;;;;;;;;;;4986933;28;20046;-80
2023/09/10 12:57:42;;;;;;;0.50;0.35;;;;;;;;;;4986299;28;20034;-78
2023/09/10 13:00:09;;;;;;;0.35;0.30;;;;;;;;;;4983333;28;20693;-79
2023/09/10 13:02:35;;;;;;;0.28;0.20;;;;;;;;;;4998963;28;20052;-80
2023/09/10 13:05:02;;;;;;;0.30;0.22;;;;;;;;;;4982666;28;20069;-80
2023/09/10 13:07:28;;;;;;;0.28;0.17;;;;;;;;;;4981337;28;20046;-79
2023/09/10 13:09:54;;;;;;;0.30;0.30;;;;;;;;;;4976947;28;20251;-79
2023/09/10 13:12:21;;;;;;;0.30;0.20;;;;;;;;;;4990360;28;20068;-80
2023/09/10 13:14:47;;;;;;;0.43;0.40;;;;;;;;;;4972407;28;20044;-80
2023/09/10 13:17:13;;;;;;;0.85;0.50;;;;;;;;;;4988684;28;20030;-78
2023/09/10 13:19:39;;;;;;;0.52;0.32;;;;;;;;;;4986040;28;20069;-80
2023/09/10 13:22:07;;;;;;;0.63;0.32;;;;;;;;;;4961673;28;20553;-81
2023/09/10 13:24:33;;;;;;;0.30;0.30;;;;;;;;;;4982247;28;20081;-81
2023/09/10 13:26:59;;;;;;;0.30;0.30;;;;;;;;;;4972195;28;20045;-79
2023/09/10 13:29:26;;;;;;;0.50;0.20;;;;;;;;;;4984514;28;20038;-79
2023/09/10 13:31:52;;;;;;;0.57;0.45;;;;;;;;;;4974729;28;20046;-80
2023/09/10 13:34:18;;;;;;;0.35;0.22;;;;;;;;;;4970121;28;20045;-80
2023/09/10 13:36:44;;;;;;;0.40;0.30;;;;;;;;;;4985761;28;20037;-80
2023/09/10 13:39:10;;;;;;;0.55;0.30;;;;;;;;;;4981971;28;20064;-79
2023/09/10 13:41:36;;;;;;;0.60;0.50;;;;;;;;;;4983345;28;20069;-81
2023/09/10 13:44:02;;;;;;;0.30;0.30;;;;;;;;;;4986869;28;20068;-81
2023/09/10 13:46:29;;;;;;;0.20;0.10;;;;;;;;;;4973364;28;20045;-80
2023/09/10 13:48:55;;;;;;;0.30;0.20;;;;;;;;;;4983071;28;20038;-82
2023/09/10 13:51:21;;;;;;;0.40;0.40;;;;;;;;;;4968770;28;20108;-82
2023/09/10 13:53:48;;;;;;;0.55;0.30;;;;;;;;;;4982305;28;20041;-82
2023/09/10 13:56:14;;;;;;;0.50;0.25;;;;;;;;;;4984940;28;20616;-79
2023/09/10 13:58:40;;;;;;;0.65;0.30;;;;;;;;;;4981979;28;20034;-81
2023/09/10 14:01:09;;;;;;;0.73;0.47;;;;;;;;;;4981647;28;20088;-79
2023/09/10 14:03:35;;;;;;;0.20;0.10;;;;;;;;;;4981716;28;20112;-78
2023/09/10 14:06:02;;;;;;;0.30;0.30;;;;;;;;;;4982500;28;20509;-78
2023/09/10 14:08:28;;;;;;;0.30;0.20;;;;;;;;;;4975532;28;20041;-80
2023/09/10 14:10:54;;;;;;;0.32;0.20;;;;;;;;;;4978859;28;20049;-80
2023/09/10 14:13:20;;;;;;;0.30;0.30;;;;;;;;;;4977344;28;20743;-80
2023/09/10 14:15:46;;;;;;;0.20;0.20;;;;;;;;;;4976999;28;20070;-83
2023/09/10 14:18:12;;;;;;;0.30;0.20;;;;;;;;;;4970732;28;20052;-80
2023/09/10 14:20:38;;;;;;;0.20;0.20;;;;;;;;;;4984886;28;20030;-81
2023/09/10 14:23:04;;;;;;;0.47;0.30;;;;;;;;;;4967547;28;20085;-79
2023/09/10 14:25:31;;;;;;;0.20;0.10;;;;;;;;;;4982720;28;20065;-79
2023/09/10 14:27:57;;;;;;;0.40;0.30;;;;;;;;;;4975598;28;20049;-78
2023/09/10 14:30:23;;;;;;;0.32;0.32;;;;;;;;;;4980652;28;20053;-80
2023/09/10 14:32:49;;;;;;;0.20;0.10;;;;;;;;;;4987072;28;20041;-79
2023/09/10 14:35:16;;;;;;;0.30;0.20;;;;;;;;;;4981860;28;20048;-79
2023/09/10 14:37:42;;;;;;;0.25;0.20;;;;;;;;;;4978736;28;20045;-80
2023/09/10 14:40:10;;;;;;;0.25;0.13;;;;;;;;;;4972646;28;20034;-81
2023/09/10 14:42:36;;;;;;;0.20;0.15;;;;;;;;;;4971550;28;20045;-80
2023/09/10 14:45:06;;;;;;;0.22;0.20;;;;;;;;;;4990053;28;20037;-79